Time;durP1;ratioP1;P1;durP2;ratioP2;P2;SDS_P1;SDS_P2;PMS_P1;PMS_P2;Temp;Humidity;BMP_temperature;BMP_pressure;BME280_temperature;BME280_humidity;BME280_pressure;Samples;Min_cycle;Max_cycle;Signal;HPM_P1;HPM_P2
2023/04/27 00:01:39;;;;;;;;;;;;;;;12.04;90.91;100188.72;5087184;28;19973;-56
2023/04/27 00:04:06;;;;;;;;;;;;;;;12.03;90.56;100186.97;5089929;28;19916;-55
2023/04/27 00:06:31;;;;;;;;;;;;;;;12.01;91.43;100186.13;5089342;28;19970;-55
2023/04/27 00:08:57;;;;;;;;;;;;;;;11.98;91.23;100180.91;5088053;28;19956;-56
2023/04/27 00:11:22;;;;;;;;;;;;;;;11.93;90.35;100180.22;5089271;28;19912;-56
2023/04/27 00:13:47;;;;;;;;;;;;;;;11.87;90.44;100185.78;5089119;28;19916;-56
2023/04/27 00:16:12;;;;;;;;;;;;;;;11.84;90.94;100175.22;5087951;28;19989;-56
2023/04/27 00:18:38;;;;;;;;;;;;;;;11.77;90.75;100189.69;5087043;28;19920;-55
2023/04/27 00:21:03;;;;;;;;;;;;;;;11.77;91.17;100177.25;5088132;28;19920;-56
2023/04/27 00:23:28;;;;;;;;;;;;;;;11.78;91.29;100178.09;5088102;28;20295;-56
2023/04/27 00:25:53;;;;;;;;;;;;;;;11.78;91.18;100175.41;5087623;28;19927;-56
2023/04/27 00:28:19;;;;;;;;;;;;;;;11.77;92.16;100176.34;5088569;28;19915;-56
2023/04/27 00:30:44;;;;;;;;;;;;;;;11.76;91.84;100167.47;5087364;28;19920;-55
2023/04/27 00:33:10;;;;;;;;;;;;;;;11.76;91.02;100171.97;5088609;28;19916;-56
2023/04/27 00:35:35;;;;;;;;;;;;;;;11.72;91.58;100173.84;5088416;28;19931;-55
2023/04/27 00:38:00;;;;;;;;;;;;;;;11.66;91.61;100175.88;5088748;28;19981;-55
2023/04/27 00:40:25;;;;;;;;;;;;;;;11.64;91.66;100172.38;5088490;28;19923;-56
2023/04/27 00:42:51;;;;;;;;;;;;;;;11.65;92.21;100174.09;5088512;28;20015;-55
2023/04/27 00:45:16;;;;;;;;;;;;;;;11.65;91.90;100174.09;5088415;28;19927;-56
2023/04/27 00:47:42;;;;;;;;;;;;;;;11.64;92.87;100172.38;5088044;28;19930;-55
2023/04/27 00:50:09;;;;;;;;;;;;;;;11.63;92.34;100175.94;5088189;28;19916;-55
2023/04/27 00:52:35;;;;;;;;;;;;;;;11.62;92.96;100174.19;5068845;28;20619;-55
2023/04/27 00:55:01;;;;;;;;;;;;;;;11.58;92.12;100180.56;5088188;28;20408;-55
2023/04/27 00:57:27;;;;;;;;;;;;;;;11.58;92.85;100183.22;5086840;28;19920;-55
2023/04/27 00:59:52;;;;;;;;;;;;;;;11.56;92.82;100180.63;5086105;28;19920;-55
2023/04/27 01:02:17;;;;;;;;;;;;;;;11.43;93.32;100178.41;5087810;28;19924;-55
2023/04/27 01:04:43;;;;;;;;;;;;;;;11.41;93.34;100180.25;5087043;28;20018;-55
2023/04/27 01:07:08;;;;;;;;;;;;;;;11.25;94.67;100179.00;5087003;28;19927;-56
2023/04/27 01:09:33;;;;;;;;;;;;;;;11.33;94.42;100182.28;5086540;28;19916;-55
2023/04/27 01:11:59;;;;;;;;;;;;;;;11.34;94.29;100174.25;5087903;28;19923;-55
2023/04/27 01:14:24;;;;;;;;;;;;;;;11.33;94.54;100171.63;5087843;28;19970;-55
2023/04/27 01:16:50;;;;;;;;;;;;;;;11.33;94.40;100174.31;5086634;28;19916;-55
2023/04/27 01:19:16;;;;;;;;;;;;;;;11.31;94.04;100178.81;5087102;28;19970;-55
2023/04/27 01:21:41;;;;;;;;;;;;;;;11.32;93.82;100177.88;5087592;28;19927;-55
2023/04/27 01:24:06;;;;;;;;;;;;;;;11.32;94.41;100186.75;5088019;28;19916;-55
2023/04/27 01:26:32;;;;;;;;;;;;;;;11.37;94.86;100186.56;5087804;28;19973;-55
2023/04/27 01:28:57;;;;;;;;;;;;;;;11.37;95.19;100189.25;5087277;28;20409;-55
2023/04/27 01:31:23;;;;;;;;;;;;;;;11.37;94.93;100192.78;5088091;28;19920;-55
2023/04/27 01:33:48;;;;;;;;;;;;;;;11.39;94.57;100190.94;5087186;28;19970;-55
2023/04/27 01:36:13;;;;;;;;;;;;;;;11.38;94.40;100189.19;5088030;28;20294;-55
2023/04/27 01:38:38;;;;;;;;;;;;;;;11.38;94.85;100189.19;5094492;28;19920;-55
2023/04/27 01:41:04;;;;;;;;;;;;;;;11.35;94.32;100188.44;5090640;28;19920;-55
2023/04/27 01:43:30;;;;;;;;;;;;;;;11.39;94.43;100187.41;5091665;28;19920;-55
2023/04/27 01:46:03;;;;;;;;;;;;;;;11.43;94.27;100189.06;5091795;28;19923;-55
2023/04/27 01:48:28;;;;;;;;;;;;;;;11.42;94.84;100187.28;5091562;28;19943;-55
2023/04/27 01:50:54;;;;;;;;;;;;;;;11.40;94.44;100200.66;5090663;28;19966;-55
2023/04/27 01:53:19;;;;;;;;;;;;;;;11.41;94.38;100188.22;5091380;28;19962;-55
2023/04/27 01:55:44;;;;;;;;;;;;;;;11.39;94.56;100188.28;5091087;28;20015;-55
2023/04/27 01:58:10;;;;;;;;;;;;;;;11.44;94.83;100182.78;5091593;28;20346;-55
2023/04/27 02:00:35;;;;;;;;;;;;;;;11.46;94.43;100184.50;5089498;28;19924;-55
2023/04/27 02:03:00;;;;;;;;;;;;;;;11.46;95.43;100184.50;5091230;28;19922;-55
2023/04/27 02:05:25;;;;;;;;;;;;;;;11.50;94.86;100174.59;5091359;28;20268;-55
2023/04/27 02:07:51;;;;;;;;;;;;;;;11.50;94.34;100186.13;5090477;28;20375;-55
2023/04/27 02:10:16;;;;;;;;;;;;;;;11.52;94.20;100178.06;5091306;28;19912;-55
2023/04/27 02:12:41;;;;;;;;;;;;;;;11.53;94.06;100185.16;5074137;28;19920;-55
2023/04/27 02:15:07;;;;;;;;;;;;;;;11.60;94.05;100181.34;5092295;28;20023;-55
2023/04/27 02:17:35;;;;;;;;;;;;;;;11.62;93.76;100184.84;5090398;28;19920;-56
2023/04/27 02:20:00;;;;;;;;;;;;;;;11.64;94.24;100183.03;5090961;28;20334;-55
2023/04/27 02:22:26;;;;;;;;;;;;;;;11.62;93.79;100180.38;5080488;28;19924;-55
2023/04/27 02:24:51;;;;;;;;;;;;;;;11.59;94.03;100185.81;5090925;28;19916;-55
2023/04/27 02:27:16;;;;;;;;;;;;;;;11.57;93.38;100189.44;5089066;28;19931;-55
2023/04/27 02:29:42;;;;;;;;;;;;;;;11.57;93.43;100198.31;5090370;28;19943;-55
2023/04/27 02:32:07;;;;;;;;;;;;;;;11.56;94.29;100190.38;5090986;28;20010;-55
2023/04/27 02:34:32;;;;;;;;;;;;;;;11.54;93.57;100201.09;5092876;28;20053;-55
2023/04/27 02:36:57;;;;;;;;;;;;;;;11.53;94.15;100198.50;5091380;28;19913;-55
2023/04/27 02:39:23;;;;;;;;;;;;;;;11.53;93.69;100195.81;5092783;28;19920;-55
2023/04/27 02:41:48;;;;;;;;;;;;;;;11.54;94.34;100203.75;5090341;28;20074;-55
2023/04/27 02:44:13;;;;;;;;;;;;;;;11.56;93.86;100211.69;5090730;28;19916;-55
2023/04/27 02:46:38;;;;;;;;;;;;;;;11.56;94.44;100203.72;5090495;28;19916;-55
2023/04/27 02:49:04;;;;;;;;;;;;;;;11.53;94.31;100203.81;5088886;28;19980;-55
2023/04/27 02:51:29;;;;;;;;;;;;;;;11.50;94.54;100202.09;5090424;28;19916;-55
2023/04/27 02:53:55;;;;;;;;;;;;;;;11.45;95.28;100206.72;5089860;28;19916;-55
2023/04/27 02:56:20;;;;;;;;;;;;;;;11.43;95.17;100202.38;5090226;28;20054;-55
2023/04/27 02:58:46;;;;;;;;;;;;;;;11.41;94.69;100204.22;5088952;28;20539;-55
2023/04/27 03:01:12;;;;;;;;;;;;;;;11.40;95.81;100205.16;5089947;28;19924;-55
2023/04/27 03:03:37;;;;;;;;;;;;;;;11.36;95.68;100199.03;5089382;28;20311;-56
2023/04/27 03:06:02;;;;;;;;;;;;;;;11.41;95.07;100204.22;5083306;28;19974;-56
2023/04/27 03:08:28;;;;;;;;;;;;;;;11.40;95.82;100194.50;5069690;28;20299;-55
2023/04/27 03:10:53;;;;;;;;;;;;;;;11.41;95.71;100197.09;5069856;28;19916;-55
2023/04/27 03:13:18;;;;;;;;;;;;;;;11.40;95.10;100199.81;5084409;28;20306;-55
2023/04/27 03:15:43;;;;;;;;;;;;;;;11.41;95.69;100196.22;5090204;28;19974;-55
2023/04/27 03:18:09;;;;;;;;;;;;;;;11.41;94.94;100197.09;5089215;28;19927;-56
2023/04/27 03:20:34;;;;;;;;;;;;;;;11.40;94.96;100194.50;5089881;28;20805;-55
2023/04/27 03:23:00;;;;;;;;;;;;;;;11.40;95.38;100199.81;5089672;28;19920;-55
2023/04/27 03:25:25;;;;;;;;;;;;;;;11.40;94.94;100202.47;5089837;28;20342;-55
2023/04/27 03:27:51;;;;;;;;;;;;;;;11.35;95.42;100196.44;5088705;28;20410;-55
2023/04/27 03:30:16;;;;;;;;;;;;;;;11.31;95.38;100205.44;5083445;28;20039;-55
2023/04/27 03:32:41;;;;;;;;;;;;;;;11.29;96.04;100196.63;5087431;28;19935;-55
2023/04/27 03:35:07;;;;;;;;;;;;;;;11.26;95.14;100197.59;5088942;28;19920;-55
2023/04/27 03:37:33;;;;;;;;;;;;;;;11.25;95.52;100201.16;5088594;28;19916;-55
2023/04/27 03:39:58;;;;;;;;;;;;;;;11.23;95.57;100202.16;5088582;28;19943;-55
2023/04/27 03:42:23;;;;;;;;;;;;;;;11.21;96.43;100198.66;5082955;28;20006;-55
2023/04/27 03:44:48;;;;;;;;;;;;;;;11.20;95.31;100195.13;5075101;28;19921;-55
2023/04/27 03:47:14;;;;;;;;;;;;;;;11.18;96.35;100204.09;5089124;28;19919;-55
2023/04/27 03:49:39;;;;;;;;;;;;;;;11.18;95.61;100204.09;5089049;28;20311;-55
2023/04/27 03:52:04;;;;;;;;;;;;;;;11.16;96.16;100201.47;5088634;28;19958;-55
2023/04/27 03:54:30;;;;;;;;;;;;;;;11.14;95.54;100202.44;5070851;28;19916;-55
2023/04/27 03:56:55;;;;;;;;;;;;;;;11.12;95.09;100210.47;5087322;28;19923;-55
2023/04/27 03:59:20;;;;;;;;;;;;;;;11.12;95.40;100214.94;5055526;28;19932;-55
2023/04/27 04:01:46;;;;;;;;;;;;;;;11.09;95.02;100209.69;5076946;28;19924;-55
2023/04/27 04:04:11;;;;;;;;;;;;;;;11.08;95.28;100215.94;5085594;28;19920;-55
2023/04/27 04:06:36;;;;;;;;;;;;;;;11.05;94.73;100219.59;5087207;28;20252;-55
2023/04/27 04:09:03;;;;;;;;;;;;;;;11.00;95.42;100221.53;5086303;28;19916;-55
2023/04/27 04:11:28;;;;;;;;;;;;;;;10.99;94.64;100210.94;5086996;28;20463;-55
2023/04/27 04:13:53;;;;;;;;;;;;;;;10.95;94.54;100214.59;5086879;28;20023;-55
2023/04/27 04:16:18;;;;;;;;;;;;;;;10.91;94.16;100220.91;5086259;28;20356;-55
2023/04/27 04:18:44;;;;;;;;;;;;;;;10.88;94.37;100221.88;5086947;28;19983;-55
2023/04/27 04:21:10;;;;;;;;;;;;;;;10.86;93.84;100222.84;5086624;28;19924;-56
2023/04/27 04:23:36;;;;;;;;;;;;;;;10.85;94.69;100221.97;5086119;28;19955;-55
2023/04/27 04:26:01;;;;;;;;;;;;;;;10.84;94.05;100222.88;5085762;28;19916;-55
2023/04/27 04:28:26;;;;;;;;;;;;;;;10.83;94.58;100236.22;5086660;28;19927;-55
2023/04/27 04:30:52;;;;;;;;;;;;;;;10.83;94.66;100225.59;5089073;28;19920;-55
2023/04/27 04:33:17;;;;;;;;;;;;;;;10.83;94.74;100228.25;5068459;28;19963;-55
2023/04/27 04:35:43;;;;;;;;;;;;;;;10.86;94.51;100238.81;5087849;28;19924;-55
2023/04/27 04:38:11;;;;;;;;;;;;;;;10.87;94.06;100224.59;5087512;28;19916;-55
2023/04/27 04:40:39;;;;;;;;;;;;;;;10.87;93.68;100230.81;5086886;28;19939;-55
2023/04/27 04:43:05;;;;;;;;;;;;;;;10.89;93.38;100233.41;5088036;28;19926;-55
2023/04/27 04:45:30;;;;;;;;;;;;;;;10.88;92.68;100229.00;5068907;28;19916;-55
2023/04/27 04:47:56;;;;;;;;;;;;;;;10.91;93.27;100231.56;5087660;28;19996;-56
2023/04/27 04:50:22;;;;;;;;;;;;;;;10.98;93.11;100225.13;5086641;28;19969;-55
2023/04/27 04:52:47;;;;;;;;;;;;;;;11.02;92.70;100229.47;5086437;28;19927;-55
2023/04/27 04:55:13;;;;;;;;;;;;;;;11.06;92.52;100236.41;5084890;28;19927;-55
2023/04/27 04:57:38;;;;;;;;;;;;;;;11.08;91.39;100226.59;5083354;28;19924;-55
2023/04/27 05:00:05;;;;;;;;;;;;;;;11.08;90.32;100226.59;5086869;28;19928;-56
2023/04/27 05:02:30;;;;;;;;;;;;;;;11.17;89.75;100234.31;5087354;28;20272;-55
2023/04/27 05:04:56;;;;;;;;;;;;;;;11.28;89.58;100226.84;5088290;28;19920;-56
2023/04/27 05:07:21;;;;;;;;;;;;;;;11.35;88.85;100233.72;5088441;28;19974;-55
2023/04/27 05:09:46;;;;;;;;;;;;;;;11.41;88.66;100228.19;5087791;28;20849;-55
2023/04/27 05:12:12;;;;;;;;;;;;;;;11.50;87.95;100238.53;5092355;28;19922;-55
2023/04/27 05:14:37;;;;;;;;;;;;;;;11.58;87.02;100241.84;5092416;28;19927;-55
2023/04/27 05:17:02;;;;;;;;;;;;;;;11.70;86.88;100236.09;5092673;28;19959;-56
2023/04/27 05:19:28;;;;;;;;;;;;;;;11.81;85.82;100239.31;5091332;28;19928;-55
2023/04/27 05:21:53;;;;;;;;;;;;;;;11.89;85.54;100234.56;5092158;28;19956;-55
2023/04/27 05:24:19;;;;;;;;;;;;;;;12.00;85.76;100240.41;5091211;28;19924;-55
2023/04/27 05:26:44;;;;;;;;;;;;;;;12.07;84.39;100247.25;5092156;28;19952;-55
2023/04/27 05:29:10;;;;;;;;;;;;;;;12.10;83.67;100246.28;5092085;28;19951;-55
2023/04/27 05:31:35;;;;;;;;;;;;;;;12.16;83.09;100257.59;5090936;28;19920;-55
2023/04/27 05:34:00;;;;;;;;;;;;;;;12.23;82.63;100256.47;5091883;28;20294;-56
2023/04/27 05:36:27;;;;;;;;;;;;;;;12.27;82.31;100263.44;5073232;28;19916;-57
2023/04/27 05:38:52;;;;;;;;;;;;;;;12.36;82.64;100268.44;5092254;28;19912;-54
2023/04/27 05:41:18;;;;;;;;;;;;;;;12.39;81.53;100270.97;5091656;28;19924;-55
2023/04/27 05:43:43;;;;;;;;;;;;;;;12.41;80.08;100274.47;5090508;28;19916;-54
2023/04/27 05:46:11;;;;;;;;;;;;;;;12.38;79.53;100277.25;5091688;28;19923;-55
2023/04/27 05:48:37;;;;;;;;;;;;;;;12.51;80.39;100275.00;5091810;28;19916;-54
2023/04/27 05:51:02;;;;;;;;;;;;;;;12.65;80.25;100283.41;5073111;28;20295;-55
2023/04/27 05:53:31;;;;;;;;;;;;;;;12.69;79.95;100285.88;5100917;28;19920;-54
2023/04/27 05:55:58;;;;;;;;;;;;;;;12.70;79.11;100276.94;5090413;28;19959;-54
2023/04/27 05:58:23;;;;;;;;;;;;;;;12.66;77.11;100279.78;5090884;28;19931;-55
2023/04/27 06:00:49;;;;;;;;;;;;;;;12.72;78.07;100285.78;5091403;28;20202;-55
2023/04/27 06:03:14;;;;;;;;;;;;;;;12.69;74.75;100280.56;5090761;28;20016;-55
2023/04/27 06:05:40;;;;;;;;;;;;;;;12.69;74.49;100285.88;5091171;28;20683;-55
2023/04/27 06:08:05;;;;;;;;;;;;;;;12.77;75.93;100294.47;5094021;28;20321;-55
2023/04/27 06:10:31;;;;;;;;;;;;;;;12.91;75.79;100292.19;5090425;28;19991;-55
2023/04/27 06:12:56;;;;;;;;;;;;;;;13.02;75.11;100303.34;5091194;28;20562;-55
2023/04/27 06:15:21;;;;;;;;;;;;;;;12.98;72.15;100304.34;5088821;28;19916;-55
2023/04/27 06:17:46;;;;;;;;;;;;;;;12.98;71.00;100303.50;5090374;28;19916;-55
2023/04/27 06:20:12;;;;;;;;;;;;;;;13.02;71.40;100298.00;5090224;28;19923;-55
2023/04/27 06:22:37;;;;;;;;;;;;;;;13.18;71.56;100304.50;5088444;28;19990;-55
2023/04/27 06:25:04;;;;;;;;;;;;;;;13.27;71.29;100302.41;5090488;28;19980;-55
2023/04/27 06:27:29;;;;;;;;;;;;;;;13.23;69.31;100308.81;5089786;28;19922;-55
2023/04/27 06:29:54;;;;;;;;;;;;;;;13.16;71.48;100308.19;5093354;28;20394;-55
2023/04/27 06:32:19;;;;;;;;;;;;;;;13.42;71.88;100309.81;5071580;28;19920;-55
2023/04/27 06:34:45;;;;;;;;;;;;;;;13.56;70.54;100311.00;5070604;28;19969;-55
2023/04/27 06:37:10;;;;;;;;;;;;;;;13.69;68.84;100303.38;5085577;28;19920;-55
2023/04/27 06:39:36;;;;;;;;;;;;;;;13.81;68.97;100302.88;5090506;28;20431;-55
2023/04/27 06:42:03;;;;;;;;;;;;;;;13.90;70.14;100302.50;5089527;28;19924;-55
2023/04/27 06:44:28;;;;;;;;;;;;;;;13.94;70.24;100309.44;5090993;28;19920;-55
2023/04/27 06:46:53;;;;;;;;;;;;;;;14.01;68.29;100305.59;5088156;28;20332;-55
2023/04/27 06:49:19;;;;;;;;;;;;;;;14.02;68.12;100296.66;5090566;28;20375;-55
2023/04/27 06:51:45;;;;;;;;;;;;;;;14.18;67.70;100301.25;5089645;28;19943;-55
2023/04/27 06:54:11;;;;;;;;;;;;;;;14.28;66.92;100299.13;5072590;28;19965;-55
2023/04/27 06:56:36;;;;;;;;;;;;;;;14.56;67.16;100299.66;5089341;28;19923;-54
2023/04/27 06:59:01;;;;;;;;;;;;;;;14.67;65.64;100292.00;5090183;28;20066;-55
2023/04/27 07:01:26;;;;;;;;;;;;;;;14.99;65.59;100298.59;5090185;28;19924;-55
2023/04/27 07:03:52;;;;;;;;;;;;;;;15.04;63.23;100302.78;5089751;28;19920;-55
2023/04/27 07:06:17;;;;;;;;;;;;;;;15.45;63.16;100307.09;5089809;28;19924;-55
2023/04/27 07:08:42;;;;;;;;;;;;;;;15.88;61.31;100307.69;5089454;28;19916;-55
2023/04/27 07:11:08;;;;;;;;;;;;;;;16.12;61.55;100306.47;5090251;28;19919;-55
2023/04/27 07:13:33;;;;;;;;;;;;;;;16.13;60.06;100302.84;5090174;28;19973;-55
2023/04/27 07:15:59;;;;;;;;;;;;;;;16.41;60.38;100309.41;5090333;28;19912;-55
2023/04/27 07:18:26;;;;;;;;;;;;;;;16.55;57.12;100306.03;5088855;28;19916;-55
2023/04/27 07:20:52;;;;;;;;;;;;;;;16.74;55.94;100306.78;5071503;28;19951;-55
2023/04/27 07:23:17;;;;;;;;;;;;;;;16.79;57.40;100302.03;5089154;28;19974;-55
2023/04/27 07:25:44;;;;;;;;;;;;;;;16.48;58.06;100309.97;5089788;28;19916;-55
2023/04/27 07:28:09;;;;;;;;;;;;;;;16.35;58.47;100312.41;5089805;28;19916;-55
2023/04/27 07:30:35;;;;;;;;;;;;;;;16.47;58.72;100319.00;5089075;28;19916;-55
2023/04/27 07:33:01;;;;;;;;;;;;;;;16.67;58.42;100310.78;5071065;28;20026;-55
2023/04/27 07:35:26;;;;;;;;;;;;;;;16.86;60.07;100307.03;5089092;28;20348;-55
2023/04/27 07:37:52;;;;;;;;;;;;;;;16.82;58.54;100304.56;5086389;28;19930;-55
2023/04/27 07:40:17;;;;;;;;;;;;;;;16.88;58.15;100309.63;5089349;28;20380;-55
2023/04/27 07:42:42;;;;;;;;;;;;;;;17.03;58.03;100306.97;5089265;28;19931;-55
2023/04/27 07:45:08;;;;;;;;;;;;;;;17.01;57.74;100308.03;5088437;28;19927;-55
2023/04/27 07:47:33;;;;;;;;;;;;;;;16.86;57.69;100304.34;5089205;28;19982;-55
2023/04/27 07:49:59;;;;;;;;;;;;;;;17.03;57.63;100303.44;5092359;28;20686;-55
2023/04/27 07:52:24;;;;;;;;;;;;;;;17.08;57.28;100302.22;5089045;28;19912;-55
2023/04/27 07:54:50;;;;;;;;;;;;;;;16.98;56.92;100300.13;5088917;28;20007;-55
2023/04/27 07:57:15;;;;;;;;;;;;;;;17.04;56.04;100294.41;5089273;28;20383;-55
2023/04/27 07:59:40;;;;;;;;;;;;;;;17.24;55.52;100291.50;5088716;28;19923;-55
2023/04/27 08:02:06;;;;;;;;;;;;;;;17.52;55.54;100285.47;5086222;28;19939;-55
2023/04/27 08:04:31;;;;;;;;;;;;;;;17.80;52.66;100291.00;5088305;28;19916;-55
2023/04/27 08:06:56;;;;;;;;;;;;;;;18.18;52.23;100285.16;5087330;28;19920;-55
2023/04/27 08:09:22;;;;;;;;;;;;;;;18.23;52.33;100285.75;5091038;28;19926;-55
2023/04/27 08:11:47;;;;;;;;;;;;;;;18.48;53.46;100284.28;5088430;28;19943;-55
2023/04/27 08:14:12;;;;;;;;;;;;;;;18.69;51.44;100282.97;5087918;28;20326;-55
2023/04/27 08:16:41;;;;;;;;;;;;;;;19.08;50.74;100280.47;5089033;28;19927;-55
2023/04/27 08:19:08;;;;;;;;;;;;;;;19.26;49.98;100279.31;5088155;28;20303;-56
2023/04/27 08:21:33;;;;;;;;;;;;;;;18.96;47.80;100282.13;5088443;28;20028;-56
2023/04/27 08:23:58;;;;;;;;;;;;;;;19.23;49.16;100279.50;5089026;28;19919;-55
2023/04/27 08:26:24;;;;;;;;;;;;;;;19.41;48.62;100278.38;5087834;28;19920;-56
2023/04/27 08:28:49;;;;;;;;;;;;;;;19.40;51.44;100282.91;5088794;28;19916;-56
2023/04/27 08:31:15;;;;;;;;;;;;;;;19.35;49.13;100278.78;5088417;28;20069;-55
2023/04/27 08:33:40;;;;;;;;;;;;;;;19.62;48.57;100279.66;5088538;28;19916;-55
2023/04/27 08:36:06;;;;;;;;;;;;;;;19.50;48.38;100272.41;5088239;28;19933;-55
2023/04/27 08:38:32;;;;;;;;;;;;;;;19.46;48.25;100270.84;5087590;28;19928;-56
2023/04/27 08:40:57;;;;;;;;;;;;;;;19.44;48.38;100279.03;5088272;28;20546;-56
2023/04/27 08:43:23;;;;;;;;;;;;;;;19.65;47.10;100269.53;5087754;28;20007;-56
2023/04/27 08:45:52;;;;;;;;;;;;;;;19.96;46.61;100275.63;5088264;28;19916;-56
2023/04/27 08:48:19;;;;;;;;;;;;;;;20.30;46.52;100281.38;5089775;28;19911;-56
2023/04/27 08:50:49;;;;;;;;;;;;;;;20.28;47.53;100280.63;5087173;28;20638;-55
2023/04/27 08:53:18;;;;;;;;;;;;;;;20.51;46.39;100281.75;5087939;28;20022;-56
2023/04/27 08:55:43;;;;;;;;;;;;;;;20.54;45.41;100278.84;5086712;28;20046;-55
2023/04/27 08:58:08;;;;;;;;;;;;;;;20.77;46.22;100278.94;5087417;28;20365;-56
2023/04/27 09:00:41;;;;;;;;;;;;;;;20.65;44.79;100277.13;5087521;28;19924;-55
2023/04/27 09:03:07;;;;;;;;;;;;;;;20.54;45.82;100279.69;5086229;28;20401;-55
2023/04/27 09:05:32;;;;;;;;;;;;;;;20.60;46.89;100273.88;5066862;28;19916;-55
2023/04/27 09:08:04;;;;;;;;;;;;;;;20.70;46.71;100274.09;5067978;28;19921;-55
2023/04/27 09:10:29;;;;;;;;;;;;;;;20.78;45.53;100275.28;5068357;28;20388;-55
2023/04/27 09:12:56;;;;;;;;;;;;;;;20.70;45.24;100283.06;5068531;28;19924;-55
2023/04/27 09:15:21;;;;;;;;;;;;;;;20.13;44.84;100273.50;5067094;28;19920;-56
2023/04/27 09:17:51;;;;;;;;;;;;;;;20.02;45.21;100278.78;5067676;28;19992;-55
2023/04/27 09:20:17;;;;;;;;;;;;;;;19.99;44.25;100284.38;5068074;28;19970;-56
2023/04/27 09:22:43;;;;;;;;;;;;;;;20.33;45.12;100285.72;5067895;28;20392;-55
2023/04/27 09:25:08;;;;;;;;;;;;;;;20.56;44.64;100283.16;5067265;28;20307;-56
2023/04/27 09:27:33;;;;;;;;;;;;;;;20.48;42.77;100285.53;5067726;28;20456;-56
2023/04/27 09:29:59;;;;;;;;;;;;;;;19.77;42.23;100272.44;5067248;28;19996;-55
2023/04/27 09:32:24;;;;;;;;;;;;;;;19.83;44.26;100274.72;5067804;28;19952;-55
2023/04/27 09:34:49;;;;;;;;;;;;;;;20.06;43.73;100274.91;5067686;28;20011;-55
2023/04/27 09:37:15;;;;;;;;;;;;;;;20.48;42.66;100274.72;5067084;28;20007;-55
2023/04/27 09:39:40;;;;;;;;;;;;;;;20.33;44.11;100270.34;5068086;28;19928;-56
2023/04/27 09:42:07;;;;;;;;;;;;;;;20.53;44.09;100269.84;5067970;28;19990;-55
2023/04/27 09:44:33;;;;;;;;;;;;;;;20.51;42.48;100271.78;5078493;28;19923;-55
2023/04/27 09:46:59;;;;;;;;;;;;;;;20.81;43.85;100272.38;5087794;28;20384;-55
2023/04/27 09:49:26;;;;;;;;;;;;;;;21.56;43.17;100270.56;5067926;28;20011;-55
2023/04/27 09:51:53;;;;;;;;;;;;;;;21.72;42.21;100265.75;5067842;28;19924;-55
2023/04/27 09:54:20;;;;;;;;;;;;;;;22.46;40.46;100258.22;5066585;28;20391;-56
2023/04/27 09:57:01;;;;;;;;;;;;;;;22.67;40.25;100256.59;5067499;28;19913;-55
2023/04/27 09:59:45;;;;;;;;;;;;;;;22.98;40.47;100250.47;5070754;28;19917;-55
2023/04/27 10:02:14;;;;;;;;;;;;;;;23.47;39.60;100246.53;5090635;28;20276;-55
2023/04/27 10:04:39;;;;;;;;;;;;;;;24.00;36.06;100251.97;5089833;28;20291;-56
2023/04/27 10:07:12;;;;;;;;;;;;;;;24.11;37.68;100249.25;5090706;28;19939;-56
2023/04/27 10:09:41;;;;;;;;;;;;;;;23.73;36.55;100253.41;5090120;28;19981;-55
2023/04/27 10:12:13;;;;;;;;;;;;;;;23.58;39.74;100243.78;5091106;28;19916;-55
2023/04/27 10:14:47;;;;;;;;;;;;;;;24.02;37.00;100251.88;5091444;28;19920;-56
2023/04/27 10:17:12;;;;;;;;;;;;;;;24.29;36.93;100258.56;5089521;28;19916;-56
2023/04/27 10:19:37;;;;;;;;;;;;;;;24.09;37.04;100253.06;5090787;28;19931;-55
2023/04/27 10:22:03;;;;;;;;;;;;;;;23.95;37.06;100254.22;5090864;28;19927;-56
2023/04/27 10:24:31;;;;;;;;;;;;;;;24.19;38.92;100238.59;5092926;28;19926;-56
2023/04/27 10:27:06;;;;;;;;;;;;;;;24.79;36.59;100239.75;5089428;28;19925;-56
2023/04/27 10:29:50;;;;;;;;;;;;;;;25.27;35.71;100238.16;5089455;28;19960;-55
2023/04/27 10:32:20;;;;;;;;;;;;;;;25.42;33.04;100234.91;5089957;28;19916;-55
2023/04/27 10:34:47;;;;;;;;;;;;;;;25.44;33.71;100237.50;5089659;28;19916;-55
2023/04/27 10:37:13;;;;;;;;;;;;;;;25.21;34.43;100242.25;5089206;28;20387;-55
2023/04/27 10:39:42;;;;;;;;;;;;;;;25.27;37.38;100247.16;5089391;28;20042;-56
2023/04/27 10:42:08;;;;;;;;;;;;;;;24.85;34.33;100239.22;5094845;28;19942;-55
2023/04/27 10:44:34;;;;;;;;;;;;;;;24.85;35.58;100245.53;5111202;28;20375;-55
2023/04/27 10:47:11;;;;;;;;;;;;;;;25.24;33.66;100241.97;5107752;28;20015;-55
2023/04/27 10:49:37;;;;;;;;;;;;;;;25.35;34.47;100232.91;5090166;28;19922;-56
2023/04/27 10:52:03;;;;;;;;;;;;;;;25.58;33.04;100232.56;5090225;28;19998;-55
2023/04/27 10:54:29;;;;;;;;;;;;;;;25.57;33.71;100228.09;5091923;28;19972;-56
2023/04/27 10:57:05;;;;;;;;;;;;;;;24.97;30.87;100227.25;5089546;28;20387;-56
2023/04/27 10:59:30;;;;;;;;;;;;;;;24.34;32.60;100225.53;5089929;28;20029;-56
2023/04/27 11:01:56;;;;;;;;;;;;;;;24.61;32.30;100234.03;5088992;28;20412;-56
2023/04/27 11:04:21;;;;;;;;;;;;;;;24.85;32.83;100229.19;5090183;28;19916;-56
2023/04/27 11:06:46;;;;;;;;;;;;;;;24.90;31.87;100231.50;5090248;28;19916;-56
2023/04/27 11:09:12;;;;;;;;;;;;;;;24.46;33.84;100227.19;5088857;28;19920;-56
2023/04/27 11:11:42;;;;;;;;;;;;;;;24.55;34.74;100234.53;5090218;28;19916;-56
2023/04/27 11:14:07;;;;;;;;;;;;;;;24.92;32.76;100226.78;5089274;28;19919;-56
2023/04/27 11:16:33;;;;;;;;;;;;;;;24.80;34.16;100223.28;5090221;28;20375;-56
2023/04/27 11:19:03;;;;;;;;;;;;;;;24.51;33.72;100225.78;5089927;28;19969;-56
2023/04/27 11:21:28;;;;;;;;;;;;;;;24.70;34.32;100222.38;5089057;28;20319;-55
2023/04/27 11:23:53;;;;;;;;;;;;;;;25.22;36.01;100205.84;5089799;28;19920;-55
2023/04/27 11:26:21;;;;;;;;;;;;;;;25.28;35.87;100210.78;5090012;28;19916;-56
2023/04/27 11:28:57;;;;;;;;;;;;;;;25.13;34.64;100211.28;5088603;28;20854;-55
2023/04/27 11:31:23;;;;;;;;;;;;;;;25.51;33.44;100195.97;5069336;28;20445;-55
2023/04/27 11:33:48;;;;;;;;;;;;;;;25.55;35.78;100199.28;5069510;28;19920;-55
2023/04/27 11:36:17;;;;;;;;;;;;;;;25.55;36.14;100197.38;5085850;28;19916;-55
2023/04/27 11:38:43;;;;;;;;;;;;;;;25.90;32.92;100189.56;5090054;28;19943;-56
2023/04/27 11:41:08;;;;;;;;;;;;;;;26.14;34.92;100193.75;5091663;28;20002;-55
2023/04/27 11:43:34;;;;;;;;;;;;;;;26.93;35.00;100187.88;5090052;28;19975;-56
2023/04/27 11:46:02;;;;;;;;;;;;;;;26.96;32.72;100187.56;5089783;28;20288;-56
2023/04/27 11:48:28;;;;;;;;;;;;;;;27.12;33.23;100194.13;5088709;28;19920;-55
2023/04/27 11:50:57;;;;;;;;;;;;;;;27.23;32.15;100180.25;5088252;28;20388;-56
2023/04/27 11:53:30;;;;;;;;;;;;;;;27.81;34.85;100190.91;5086045;28;19916;-56
2023/04/27 11:55:55;;;;;;;;;;;;;;;28.18;30.87;100180.66;5085051;28;19918;-56
2023/04/27 11:58:20;;;;;;;;;;;;;;;28.42;32.26;100180.88;5087943;28;20686;-56
2023/04/27 12:00:46;;;;;;;;;;;;;;;28.16;31.67;100179.97;5087681;28;19959;-56
2023/04/27 12:03:12;;;;;;;;;;;;;;;28.52;33.30;100180.81;5087665;28;20391;-56
2023/04/27 12:05:46;;;;;;;;;;;;;;;28.13;32.12;100175.69;5088923;28;20007;-56
2023/04/27 12:08:11;;;;;;;;;;;;;;;27.88;31.56;100176.44;5088596;28;19916;-56
2023/04/27 12:10:36;;;;;;;;;;;;;;;26.89;32.28;100164.59;5089051;28;19966;-56
2023/04/27 12:13:02;;;;;;;;;;;;;;;27.18;33.19;100165.34;5088353;28;20220;-56
2023/04/27 12:15:27;;;;;;;;;;;;;;;27.74;33.57;100167.91;5088982;28;19969;-56
2023/04/27 12:17:52;;;;;;;;;;;;;;;27.32;32.41;100156.66;5088314;28;20296;-56
2023/04/27 12:20:18;;;;;;;;;;;;;;;27.62;32.30;100161.81;5089309;28;20011;-56
2023/04/27 12:22:43;;;;;;;;;;;;;;;28.10;31.75;100164.19;5089038;28;19920;-56
2023/04/27 12:25:08;;;;;;;;;;;;;;;28.37;31.08;100153.97;5088242;28;19924;-57
2023/04/27 12:27:33;;;;;;;;;;;;;;;28.08;31.03;100158.88;5088491;28;19916;-56
2023/04/27 12:29:59;;;;;;;;;;;;;;;28.12;31.79;100160.25;5088026;28;20363;-56